createdAt,value
2018-03-08T00:01:14.784Z,86.60
2018-03-08T00:03:42.330Z,91.03
2018-03-08T00:06:09.784Z,89.72
2018-03-08T00:08:37.377Z,87.03
2018-03-08T00:11:04.922Z,105.80
2018-03-08T00:13:32.386Z,96.75
2018-03-08T00:15:59.942Z,87.07
2018-03-08T00:18:27.493Z,82.55
2018-03-08T00:20:54.961Z,90.55
2018-03-08T00:23:22.520Z,86.22
2018-03-08T00:25:49.989Z,85.50
2018-03-08T00:28:17.532Z,79.97
2018-03-08T00:30:45.018Z,80.68
2018-03-08T00:33:12.544Z,84.87
2018-03-08T00:35:40.043Z,92.30
2018-03-08T00:38:07.553Z,95.03
2018-03-08T00:40:35.112Z,85.97
2018-03-08T00:43:02.555Z,97.25
2018-03-08T00:45:30.013Z,85.03
2018-03-08T00:47:57.457Z,81.78
2018-03-08T00:50:24.922Z,86.20
2018-03-08T00:52:53.266Z,82.20
2018-03-08T00:55:20.724Z,93.78
2018-03-08T00:57:48.168Z,85.38
2018-03-08T01:00:15.645Z,87.20
2018-03-08T01:02:43.159Z,85.35
2018-03-08T01:05:10.709Z,87.90
2018-03-08T01:07:38.169Z,74.32
2018-03-08T01:10:05.645Z,100.97
2018-03-08T01:12:33.114Z,91.35
2018-03-08T01:15:01.570Z,78.95
2018-03-08T01:17:29.050Z,88.62
2018-03-08T01:19:56.525Z,91.18
2018-03-08T01:22:23.968Z,94.90
2018-03-08T01:24:51.546Z,91.68
2018-03-08T01:27:18.996Z,85.95
2018-03-08T01:29:46.457Z,73.65
2018-03-08T01:32:13.965Z,75.80
2018-03-08T01:34:41.420Z,81.47
2018-03-08T01:37:08.873Z,78.62
2018-03-08T01:39:36.356Z,74.78
2018-03-08T01:42:03.894Z,77.03
2018-03-08T01:44:31.447Z,74.93
2018-03-08T01:46:58.903Z,78.62
2018-03-08T01:49:26.365Z,78.85
2018-03-08T01:54:48.003Z,82.85
2018-03-08T01:57:15.452Z,83.07
2018-03-08T01:59:42.925Z,82.25
2018-03-08T02:02:10.509Z,77.62
2018-03-08T02:04:37.972Z,78.60
2018-03-08T02:07:05.421Z,94.72
2018-03-08T02:09:33.074Z,87.88
2018-03-08T02:12:00.729Z,85.00
2018-03-08T02:14:28.274Z,91.12
2018-03-08T02:16:55.825Z,85.82
2018-03-08T02:19:23.273Z,87.25
2018-03-08T02:21:50.738Z,83.40
2018-03-08T02:24:18.180Z,89.87
2018-03-08T02:26:45.658Z,82.20
2018-03-08T02:29:13.114Z,84.53
2018-03-08T02:31:40.683Z,83.03
2018-03-08T02:34:08.237Z,79.15
2018-03-08T02:36:36.718Z,90.35
2018-03-08T02:39:04.176Z,83.28
2018-03-08T02:41:31.643Z,78.57
2018-03-08T02:43:59.196Z,81.78
2018-03-08T02:46:26.679Z,75.80
2018-03-08T02:48:54.205Z,72.55
2018-03-08T02:51:21.671Z,74.40
2018-03-08T02:53:49.131Z,75.53
2018-03-08T02:56:16.595Z,72.82
2018-03-08T02:58:44.051Z,78.65
2018-03-08T03:01:11.529Z,78.85
2018-03-08T03:03:38.982Z,74.07
2018-03-08T03:06:06.454Z,77.65
2018-03-08T03:08:33.906Z,82.80
2018-03-08T03:11:01.373Z,86.15
2018-03-08T03:13:28.886Z,85.75
2018-03-08T03:15:56.353Z,83.00
2018-03-08T03:18:23.889Z,89.57
2018-03-08T03:20:51.348Z,91.87
2018-03-08T03:23:18.806Z,89.82
2018-03-08T03:25:46.281Z,86.12
2018-03-08T03:28:13.818Z,93.45
2018-03-08T03:30:41.295Z,90.95
2018-03-08T03:33:08.757Z,89.87
2018-03-08T03:35:36.235Z,91.12
2018-03-08T03:38:03.741Z,83.72
2018-03-08T03:40:31.206Z,83.45
2018-03-08T03:42:58.669Z,81.30
2018-03-08T03:45:26.134Z,85.68
2018-03-08T03:47:53.584Z,77.07
2018-03-08T03:50:21.053Z,89.37
2018-03-08T03:52:48.500Z,94.20
2018-03-08T03:55:15.974Z,99.70
2018-03-08T03:57:43.514Z,92.22
2018-03-08T04:00:10.985Z,97.72
2018-03-08T04:02:38.437Z,102.25
2018-03-08T04:05:05.981Z,94.05
2018-03-08T04:07:34.423Z,94.93
2018-03-08T04:10:01.889Z,95.00
2018-03-08T04:12:29.336Z,102.72
2018-03-08T04:14:56.840Z,102.75
2018-03-08T04:17:24.301Z,96.55
2018-03-08T04:19:51.757Z,97.78
2018-03-08T04:22:20.327Z,99.20
2018-03-08T04:24:47.794Z,95.07
2018-03-08T04:27:15.249Z,103.55
2018-03-08T04:29:43.052Z,99.72
2018-03-08T04:32:10.566Z,106.47
2018-03-08T04:34:38.929Z,99.50
2018-03-08T04:37:07.386Z,100.82
2018-03-08T04:39:34.877Z,112.40
2018-03-08T04:42:02.333Z,112.62
2018-03-08T04:44:29.889Z,109.05
2018-03-08T04:46:57.350Z,106.82
2018-03-08T04:49:24.822Z,102.20
2018-03-08T04:51:52.284Z,106.10
2018-03-08T04:54:19.867Z,118.30
2018-03-08T04:56:47.281Z,106.12
2018-03-08T04:59:14.756Z,111.30
2018-03-08T05:01:42.289Z,112.53
2018-03-08T05:04:09.753Z,109.03
2018-03-08T05:06:38.234Z,114.75
2018-03-08T05:09:05.702Z,104.03
2018-03-08T05:11:33.153Z,127.82
2018-03-08T05:14:00.621Z,131.12
2018-03-08T05:16:28.095Z,122.70
2018-03-08T05:18:55.565Z,139.35
2018-03-08T05:21:23.027Z,118.43
2018-03-08T05:23:50.502Z,124.10
2018-03-08T05:26:18.914Z,116.90
2018-03-08T05:28:46.364Z,126.45
2018-03-08T05:31:13.923Z,121.75
2018-03-08T05:33:41.376Z,146.00
2018-03-08T05:36:08.841Z,124.35
2018-03-08T05:38:36.510Z,131.80
2018-03-08T05:41:04.960Z,140.45
2018-03-08T05:43:32.447Z,137.57
2018-03-08T05:45:59.923Z,137.57
2018-03-08T05:48:28.374Z,140.10
2018-03-08T05:50:55.879Z,146.07
2018-03-08T05:53:24.341Z,126.93
2018-03-08T05:55:51.872Z,141.77
2018-03-08T05:58:19.338Z,146.40
2018-03-08T06:00:47.853Z,143.52
2018-03-08T06:03:15.293Z,126.95
2018-03-08T06:05:42.753Z,139.70
2018-03-08T06:08:11.185Z,123.20
2018-03-08T06:10:38.640Z,142.10
2018-03-08T06:13:06.105Z,131.82
2018-03-08T06:15:33.640Z,138.55
2018-03-08T06:18:01.122Z,130.35
2018-03-08T06:20:28.580Z,130.75
2018-03-08T06:22:56.140Z,130.00
2018-03-08T06:25:23.596Z,123.70
2018-03-08T06:27:51.045Z,116.22
2018-03-08T06:30:18.509Z,148.98
2018-03-08T06:32:46.074Z,129.02
2018-03-08T06:35:13.546Z,125.18
2018-03-08T06:37:41.045Z,117.35
2018-03-08T06:40:08.553Z,127.70
2018-03-08T06:42:36.008Z,125.12
2018-03-08T06:45:04.478Z,141.43
2018-03-08T06:47:32.041Z,131.93
2018-03-08T06:49:59.521Z,135.85
2018-03-08T06:52:27.064Z,168.80
2018-03-08T06:54:54.545Z,133.35
2018-03-08T06:57:22.002Z,140.75
2018-03-08T06:59:49.469Z,138.02
2018-03-08T07:02:17.021Z,139.07
2018-03-08T07:04:44.495Z,135.27
2018-03-08T07:07:12.907Z,145.80
2018-03-08T07:09:40.473Z,134.20
2018-03-08T07:12:07.956Z,143.00
2018-03-08T07:14:36.438Z,143.30
2018-03-08T07:17:03.885Z,135.45
2018-03-08T07:19:31.362Z,150.77
2018-03-08T07:21:59.801Z,151.87
2018-03-08T07:24:27.278Z,156.35
2018-03-08T07:26:54.740Z,151.60
2018-03-08T07:29:22.205Z,147.43
2018-03-08T07:31:49.653Z,156.10
2018-03-08T07:34:18.140Z,156.52
2018-03-08T07:36:45.591Z,145.18
2018-03-08T07:39:13.161Z,156.77
2018-03-08T07:41:40.713Z,167.80
2018-03-08T07:44:08.181Z,152.70
2018-03-08T07:46:35.633Z,161.52
2018-03-08T07:49:03.106Z,171.00
2018-03-08T07:51:30.568Z,158.57
2018-03-08T07:53:58.044Z,177.38
2018-03-08T07:56:25.501Z,173.38
2018-03-08T07:58:53.926Z,171.07
2018-03-08T08:01:22.389Z,173.35
2018-03-08T08:03:49.861Z,179.57
2018-03-08T08:06:29.033Z,169.90
2018-03-08T08:09:08.342Z,166.05
2018-03-08T08:11:35.797Z,175.40
2018-03-08T08:14:05.191Z,183.68
2018-03-08T08:16:32.659Z,172.37
2018-03-08T08:19:00.133Z,191.98
2018-03-08T08:21:27.582Z,186.32
2018-03-08T08:23:55.048Z,217.40
2018-03-08T08:26:23.480Z,213.30
2018-03-08T08:28:50.963Z,182.80
2018-03-08T08:31:19.406Z,195.65
2018-03-08T08:33:46.866Z,196.32
2018-03-08T08:36:16.261Z,203.77
2018-03-08T08:38:43.718Z,231.02
2018-03-08T08:41:12.141Z,206.27
2018-03-08T08:43:39.598Z,233.87
2018-03-08T08:46:07.072Z,234.52
2018-03-08T08:48:34.574Z,233.98
2018-03-08T08:51:02.073Z,220.25
2018-03-08T08:53:29.532Z,247.75
2018-03-08T08:55:57.001Z,250.10
2018-03-08T08:58:24.458Z,286.42
2018-03-08T09:00:51.926Z,267.90
2018-03-08T09:03:19.373Z,248.15
2018-03-08T09:05:46.842Z,252.27
2018-03-08T09:08:14.473Z,244.32
2018-03-08T09:10:41.945Z,238.15
2018-03-08T09:13:09.403Z,215.57
2018-03-08T09:15:36.868Z,194.18
2018-03-08T09:18:05.237Z,205.32
2018-03-08T09:20:32.792Z,195.60
2018-03-08T09:23:00.242Z,174.93
2018-03-08T09:25:27.710Z,159.23
2018-03-08T09:27:55.157Z,145.25
2018-03-08T09:30:22.634Z,158.80
2018-03-08T09:32:50.089Z,143.45
2018-03-08T09:35:17.565Z,156.52
2018-03-08T09:37:45.087Z,127.97
2018-03-08T09:40:12.554Z,148.80
2018-03-08T09:42:41.014Z,126.47
2018-03-08T09:45:08.492Z,122.28
2018-03-08T09:47:35.946Z,129.38
2018-03-08T09:50:03.462Z,110.82
2018-03-08T09:52:30.912Z,114.97
2018-03-08T09:54:58.417Z,107.28
2018-03-08T09:57:25.880Z,105.80
2018-03-08T09:59:53.413Z,94.25
2018-03-08T10:02:20.970Z,94.72
2018-03-08T10:04:48.431Z,86.80
2018-03-08T10:07:15.884Z,85.35
2018-03-08T10:09:43.376Z,80.80
2018-03-08T10:12:10.825Z,91.97
2018-03-08T10:14:38.313Z,84.00
2018-03-08T10:17:05.832Z,83.95
2018-03-08T10:19:33.340Z,71.70
2018-03-08T10:22:00.791Z,79.40
2018-03-08T10:24:28.260Z,76.43
2018-03-08T10:26:55.701Z,80.20
2018-03-08T10:29:23.180Z,72.10
2018-03-08T10:31:50.668Z,72.00
2018-03-08T10:34:18.137Z,61.37
2018-03-08T10:36:45.698Z,69.07
2018-03-08T10:44:08.205Z,77.57
2018-03-08T10:46:35.654Z,84.85
2018-03-08T10:49:03.134Z,90.78
2018-03-08T10:51:30.591Z,80.82
2018-03-08T10:54:00.081Z,75.40
2018-03-08T10:56:27.581Z,72.80
2018-03-08T10:58:55.028Z,75.00
2018-03-08T11:01:26.389Z,79.32
2018-03-08T11:03:55.588Z,76.00
2018-03-08T11:06:34.797Z,84.72
2018-03-08T11:09:02.261Z,83.03
2018-03-08T11:11:29.729Z,79.60
2018-03-08T11:13:57.254Z,95.70
2018-03-08T11:16:24.742Z,86.43
2018-03-08T11:18:54.219Z,92.53
2018-03-08T11:21:21.722Z,91.85
2018-03-08T11:23:51.166Z,103.35
2018-03-08T11:26:18.733Z,91.90
2018-03-08T11:28:49.971Z,107.68
2018-03-08T11:31:17.438Z,103.10
2018-03-08T11:33:44.931Z,93.95
2018-03-08T11:36:12.444Z,105.35
2018-03-08T11:38:39.898Z,105.40
2018-03-08T11:41:07.365Z,100.40
2018-03-08T11:43:34.829Z,105.22
2018-03-08T11:46:03.290Z,98.95
2018-03-08T11:48:30.798Z,99.35
2018-03-08T11:50:58.277Z,111.80
2018-03-08T11:53:26.675Z,105.53
2018-03-08T11:55:54.190Z,104.30
2018-03-08T11:58:21.710Z,112.70
2018-03-08T12:00:49.178Z,98.25
2018-03-08T12:03:17.627Z,98.43
2018-03-08T12:05:45.085Z,98.82
2018-03-08T12:08:12.552Z,101.40
2018-03-08T12:10:40.995Z,101.62
2018-03-08T12:13:09.393Z,100.15
2018-03-08T12:15:40.757Z,92.07
2018-03-08T12:18:08.225Z,96.40
2018-03-08T12:20:35.759Z,94.57
2018-03-08T12:23:03.288Z,76.65
2018-03-08T12:25:30.855Z,88.85
2018-03-08T12:27:58.367Z,76.03
2018-03-08T12:30:26.813Z,69.68
2018-03-08T12:32:54.283Z,77.55
2018-03-08T12:35:21.725Z,74.12
2018-03-08T12:37:49.189Z,67.07
2018-03-08T12:40:16.786Z,71.55
2018-03-08T12:42:44.289Z,73.75
2018-03-08T12:45:12.723Z,64.43
2018-03-08T12:47:40.180Z,65.95
2018-03-08T12:50:07.825Z,59.85
2018-03-08T12:52:35.375Z,45.17
2018-03-08T12:55:02.846Z,55.30
2018-03-08T12:57:30.305Z,46.55
2018-03-08T12:59:57.822Z,56.95
2018-03-08T13:02:25.319Z,52.13
2018-03-08T13:04:52.792Z,49.58
2018-03-08T13:07:21.264Z,53.90
2018-03-08T13:09:48.710Z,47.25
2018-03-08T13:12:18.145Z,48.85
2018-03-08T13:14:45.614Z,50.95
2018-03-08T13:17:13.186Z,53.87
2018-03-08T13:19:40.610Z,47.95
2018-03-08T13:22:09.046Z,44.40
2018-03-08T13:24:36.517Z,40.88
2018-03-08T13:27:05.162Z,39.22
2018-03-08T13:29:32.665Z,44.08
2018-03-08T13:32:01.126Z,46.37
2018-03-08T13:34:29.599Z,44.30
2018-03-08T13:36:58.004Z,39.58
2018-03-08T13:39:26.479Z,34.53
2018-03-08T13:41:53.942Z,41.07
2018-03-08T13:44:25.069Z,36.60
2018-03-08T13:46:53.546Z,37.87
2018-03-08T13:49:33.897Z,39.53
2018-03-08T13:52:01.389Z,34.17
2018-03-08T13:54:28.846Z,41.87
2018-03-08T13:56:58.249Z,40.40
2018-03-08T13:59:26.693Z,41.07
2018-03-08T14:01:54.189Z,38.60
2018-03-08T14:04:22.547Z,36.80
2018-03-08T14:06:51.005Z,36.00
2018-03-08T14:09:18.577Z,33.77
2018-03-08T14:11:46.136Z,38.07
2018-03-08T14:14:13.609Z,37.67
2018-03-08T14:16:41.077Z,36.03
2018-03-08T14:19:08.521Z,40.67
2018-03-08T14:21:35.994Z,42.53
2018-03-08T14:24:03.449Z,40.80
2018-03-08T14:26:30.917Z,41.10
2018-03-08T14:28:58.372Z,36.30
2018-03-08T14:31:25.856Z,37.77
2018-03-08T14:33:54.227Z,39.50
2018-03-08T14:36:21.693Z,43.47
2018-03-08T14:38:52.565Z,40.20
2018-03-08T14:41:20.038Z,42.33
2018-03-08T14:43:47.488Z,41.77
2018-03-08T14:46:14.969Z,42.20
2018-03-08T14:48:43.422Z,42.13
2018-03-08T14:51:11.086Z,44.57
2018-03-08T14:53:40.586Z,44.97
2018-03-08T14:56:08.141Z,47.40
2018-03-08T14:58:35.612Z,35.47
2018-03-08T15:01:03.090Z,35.77
2018-03-08T15:03:30.585Z,43.10
2018-03-08T15:05:58.034Z,36.60
2018-03-08T15:08:26.436Z,41.40
2018-03-08T15:10:53.893Z,36.17
2018-03-08T15:13:22.261Z,37.53
2018-03-08T15:15:49.709Z,33.53
2018-03-08T15:18:17.189Z,34.60
2018-03-08T15:20:45.645Z,33.90
2018-03-08T15:23:15.070Z,35.43
2018-03-08T15:25:43.541Z,41.13
2018-03-08T15:28:11.927Z,34.53
2018-03-08T15:30:39.390Z,30.30
2018-03-08T15:33:06.857Z,33.77
2018-03-08T15:35:34.306Z,38.17
2018-03-08T15:38:01.781Z,33.83
2018-03-08T15:40:29.244Z,36.67
2018-03-08T15:42:56.714Z,32.27
2018-03-08T15:45:25.070Z,40.03
2018-03-08T15:47:52.622Z,35.87
2018-03-08T15:50:20.117Z,34.37
2018-03-08T15:52:47.554Z,40.50
2018-03-08T15:55:15.989Z,36.95
2018-03-08T15:57:43.565Z,35.75
2018-03-08T16:00:11.015Z,36.67
2018-03-08T16:02:38.477Z,37.05
2018-03-08T16:05:05.938Z,36.75
2018-03-08T16:10:36.367Z,38.38
2018-03-08T16:13:03.966Z,37.13
2018-03-08T16:15:31.434Z,37.83
2018-03-08T16:17:58.911Z,36.75
2018-03-08T16:20:26.364Z,33.85
2018-03-08T16:22:53.840Z,32.13
2018-03-08T16:25:21.316Z,37.75
2018-03-08T16:27:48.786Z,39.35
2018-03-08T16:30:16.261Z,38.10
2018-03-08T16:32:43.803Z,34.15
2018-03-08T16:35:11.320Z,41.75
2018-03-08T16:37:39.707Z,40.45
2018-03-08T16:40:07.195Z,45.40
2018-03-08T16:42:34.651Z,42.70
2018-03-08T16:45:02.118Z,42.47
2018-03-08T16:47:29.585Z,46.65
2018-03-08T16:49:57.126Z,42.38
2018-03-08T16:52:24.572Z,51.83
2018-03-08T16:54:52.120Z,43.15
2018-03-08T16:57:19.578Z,55.00
2018-03-08T16:59:47.053Z,41.50
2018-03-08T17:02:14.502Z,49.70
2018-03-08T17:04:41.969Z,42.95
2018-03-08T17:07:09.439Z,45.55
2018-03-08T17:09:37.045Z,49.42
2018-03-08T17:12:05.443Z,46.22
2018-03-08T17:14:33.863Z,49.13
2018-03-08T17:17:02.301Z,40.12
2018-03-08T17:19:29.786Z,43.00
2018-03-08T17:21:59.697Z,44.47
2018-03-08T17:24:27.214Z,46.70
2018-03-08T17:26:54.769Z,44.75
2018-03-08T17:29:22.245Z,43.25
2018-03-08T17:31:49.698Z,45.03
2018-03-08T17:34:17.169Z,56.63
2018-03-08T17:36:44.627Z,44.95
2018-03-08T17:39:12.097Z,46.08
2018-03-08T17:41:39.550Z,50.75
2018-03-08T17:44:07.022Z,40.97
2018-03-08T17:46:35.413Z,47.53
2018-03-08T17:49:02.946Z,39.72
2018-03-08T17:51:30.431Z,41.05
2018-03-08T17:53:57.912Z,41.15
2018-03-08T17:56:25.379Z,51.13
2018-03-08T17:58:53.844Z,47.60
2018-03-08T18:01:21.308Z,37.10
2018-03-08T18:03:48.768Z,40.30
2018-03-08T18:06:16.348Z,33.97
2018-03-08T18:08:43.838Z,29.33
2018-03-08T18:11:11.295Z,31.58
2018-03-08T18:13:38.768Z,26.67
2018-03-08T18:16:06.219Z,17.17
2018-03-08T18:18:33.753Z,14.35
2018-03-08T18:21:01.194Z,16.48
2018-03-08T18:23:28.666Z,16.92
2018-03-08T18:25:56.225Z,16.23
2018-03-08T18:28:23.896Z,17.45
2018-03-08T18:30:51.360Z,15.70
2018-03-08T18:33:18.838Z,13.85
2018-03-08T18:35:46.363Z,14.30
2018-03-08T18:38:13.833Z,15.35
2018-03-08T18:40:41.329Z,12.07
2018-03-08T18:43:08.789Z,14.82
2018-03-08T18:45:36.228Z,10.50
2018-03-08T18:48:03.778Z,13.73
2018-03-08T18:50:31.271Z,11.68
2018-03-08T18:52:58.814Z,14.48
2018-03-08T18:55:26.333Z,15.00
2018-03-08T18:57:53.829Z,17.08
2018-03-08T19:00:21.329Z,15.82
2018-03-08T19:02:49.180Z,18.00
2018-03-08T19:05:16.698Z,15.63
2018-03-08T19:07:44.218Z,16.50
2018-03-08T19:10:11.709Z,16.37
2018-03-08T19:12:40.113Z,18.30
2018-03-08T19:15:07.589Z,23.05
2018-03-08T19:17:35.106Z,18.02
2018-03-08T19:20:02.581Z,17.50
2018-03-08T19:22:31.970Z,21.92
2018-03-08T19:24:59.409Z,19.27
2018-03-08T19:27:26.869Z,19.70
2018-03-08T19:29:57.806Z,18.90
2018-03-08T19:32:25.310Z,16.52
2018-03-08T19:34:52.777Z,29.02
2018-03-08T19:37:20.233Z,20.60
2018-03-08T19:39:47.728Z,17.42
2018-03-08T19:42:15.206Z,15.68
2018-03-08T19:44:42.728Z,20.85
2018-03-08T19:47:10.153Z,18.80
2018-03-08T19:49:37.629Z,15.48
2018-03-08T19:52:05.093Z,13.85
2018-03-08T19:54:32.562Z,14.82
2018-03-08T19:57:00.020Z,16.33
2018-03-08T19:59:27.483Z,16.92
2018-03-08T20:01:54.939Z,20.35
2018-03-08T20:04:22.508Z,22.08
2018-03-08T20:06:49.984Z,17.33
2018-03-08T20:09:17.574Z,16.98
2018-03-08T20:11:45.989Z,16.02
2018-03-08T20:14:14.419Z,20.92
2018-03-08T20:16:41.874Z,17.65
2018-03-08T20:19:09.346Z,21.25
2018-03-08T20:21:36.829Z,25.75
2018-03-08T20:24:04.297Z,18.05
2018-03-08T20:26:31.745Z,22.70
2018-03-08T20:28:59.209Z,31.33
2018-03-08T20:31:27.598Z,28.45
2018-03-08T20:33:55.062Z,26.65
2018-03-08T20:36:22.505Z,25.70
2018-03-08T20:38:49.981Z,22.40
2018-03-08T20:41:17.426Z,23.83
2018-03-08T20:43:44.924Z,24.92
2018-03-08T20:46:12.397Z,27.33
2018-03-08T20:48:39.886Z,25.30
2018-03-08T20:51:08.266Z,22.40
2018-03-08T20:53:35.747Z,25.98
2018-03-08T20:56:03.196Z,29.35
2018-03-08T20:58:30.777Z,22.95
2018-03-08T21:00:58.250Z,26.08
2018-03-08T21:03:26.507Z,33.30
2018-03-08T21:05:54.217Z,37.40
2018-03-08T21:08:21.690Z,35.00
2018-03-08T21:10:49.136Z,37.45
2018-03-08T21:13:16.600Z,45.12
2018-03-08T21:15:44.148Z,38.85
2018-03-08T21:18:11.666Z,49.40
2018-03-08T21:20:39.130Z,34.15
2018-03-08T21:23:06.578Z,50.33
2018-03-08T21:25:34.122Z,52.65
2018-03-08T21:28:01.564Z,43.22
2018-03-08T21:30:29.027Z,31.55
2018-03-08T21:32:57.478Z,31.50
2018-03-08T21:35:24.962Z,31.77
2018-03-08T21:37:55.543Z,41.17
2018-03-08T21:40:23.002Z,34.78
2018-03-08T21:42:50.455Z,30.48
2018-03-08T21:45:17.913Z,38.05
2018-03-08T21:47:45.357Z,32.88
2018-03-08T21:50:12.817Z,35.92
2018-03-08T21:52:40.274Z,44.17
2018-03-08T21:55:07.773Z,36.33
2018-03-08T21:57:37.129Z,42.00
2018-03-08T22:00:04.600Z,36.30
2018-03-08T22:02:32.054Z,36.78
2018-03-08T22:04:59.512Z,40.85
2018-03-08T22:07:26.979Z,38.28
2018-03-08T22:09:54.450Z,41.03
2018-03-08T22:12:21.894Z,35.38
2018-03-08T22:14:49.406Z,37.55
2018-03-08T22:17:16.855Z,33.90
2018-03-08T22:19:44.796Z,34.75
2018-03-08T22:22:12.241Z,40.95
2018-03-08T22:24:39.701Z,39.45
2018-03-08T22:27:07.202Z,35.63
2018-03-08T22:29:34.668Z,34.17
2018-03-08T22:32:02.115Z,34.05
2018-03-08T22:34:29.670Z,31.42
2018-03-08T22:36:57.113Z,33.10
2018-03-08T22:39:24.574Z,40.47
2018-03-08T22:41:52.026Z,30.40
2018-03-08T22:44:19.493Z,25.90
2018-03-08T22:46:46.937Z,30.50
2018-03-08T22:49:14.504Z,25.92
2018-03-08T22:51:41.964Z,28.50
2018-03-08T22:54:09.409Z,22.05
2018-03-08T22:56:36.868Z,27.73
2018-03-08T22:59:04.308Z,26.65
2018-03-08T23:04:38.757Z,22.70
2018-03-08T23:07:06.209Z,20.75
2018-03-08T23:09:33.654Z,20.12
2018-03-08T23:12:01.121Z,20.65
2018-03-08T23:14:28.569Z,22.48
2018-03-08T23:16:56.028Z,18.70
2018-03-08T23:19:23.486Z,17.90
2018-03-08T23:21:50.956Z,19.85
2018-03-08T23:24:18.400Z,21.33
2018-03-08T23:26:45.903Z,23.45
2018-03-08T23:29:14.373Z,19.30
2018-03-08T23:31:41.838Z,21.00
2018-03-08T23:34:09.293Z,19.02
2018-03-08T23:36:36.760Z,21.90
2018-03-08T23:39:04.217Z,23.17
2018-03-08T23:41:31.689Z,17.98
2018-03-08T23:43:59.173Z,24.67
2018-03-08T23:46:26.624Z,19.98
2018-03-08T23:48:54.125Z,23.85
2018-03-08T23:51:21.585Z,22.73
2018-03-08T23:53:49.044Z,22.50
2018-03-08T23:56:16.513Z,21.92
2018-03-08T23:58:43.980Z,26.87
